createdAt,value
2017-10-11T00:02:04.808Z,90.70
2017-10-11T00:04:31.109Z,89.90
2017-10-11T00:06:58.626Z,90.00
2017-10-11T00:09:25.667Z,90.10
2017-10-11T00:11:52.338Z,90.60
2017-10-11T00:14:18.655Z,89.40
2017-10-11T00:16:45.503Z,90.30
2017-10-11T00:19:11.799Z,89.60
2017-10-11T00:21:38.093Z,89.30
2017-10-11T00:24:05.026Z,89.70
2017-10-11T00:26:31.330Z,89.30
2017-10-11T00:28:57.647Z,89.30
2017-10-11T00:31:24.538Z,89.20
2017-10-11T00:33:51.413Z,91.70
2017-10-11T00:36:18.447Z,90.50
2017-10-11T00:38:44.763Z,90.30
2017-10-11T00:41:11.539Z,89.60
2017-10-11T00:43:37.995Z,89.50
2017-10-11T00:46:05.050Z,89.90
2017-10-11T00:48:32.152Z,89.30
2017-10-11T00:50:58.462Z,89.60
2017-10-11T00:53:25.562Z,89.60
2017-10-11T00:55:51.903Z,89.50
2017-10-11T00:58:18.242Z,89.50
2017-10-11T01:00:44.615Z,89.70
2017-10-11T01:03:11.719Z,90.90
2017-10-11T01:05:38.572Z,90.90
2017-10-11T01:08:04.894Z,89.30
2017-10-11T01:10:32.059Z,88.70
2017-10-11T01:21:42.142Z,89.60
2017-10-11T01:24:09.299Z,89.80
2017-10-11T01:26:36.254Z,88.50
2017-10-11T01:29:03.163Z,89.70
2017-10-11T01:31:30.247Z,89.70
2017-10-11T01:33:57.099Z,89.60
2017-10-11T01:36:23.458Z,90.00
2017-10-11T01:38:49.816Z,90.40
2017-10-11T01:41:17.855Z,89.40
2017-10-11T01:43:44.193Z,89.50
2017-10-11T01:46:10.599Z,90.30
2017-10-11T01:48:37.000Z,89.60
2017-10-11T01:51:04.064Z,89.50
2017-10-11T01:53:31.884Z,89.70
2017-10-11T01:55:58.255Z,89.80
2017-10-11T01:58:25.347Z,89.50
2017-10-11T02:00:51.687Z,89.60
2017-10-11T02:03:18.454Z,89.50
2017-10-11T02:05:44.792Z,89.90
2017-10-11T02:08:11.825Z,89.70
2017-10-11T02:10:38.108Z,89.70
2017-10-11T02:13:05.028Z,90.00
2017-10-11T02:15:31.975Z,89.90
2017-10-11T02:17:58.939Z,90.00
2017-10-11T02:20:25.879Z,90.00
2017-10-11T02:22:52.944Z,90.20
2017-10-11T02:25:19.971Z,90.90
2017-10-11T02:27:46.939Z,91.90
2017-10-11T02:30:13.828Z,92.30
2017-10-11T02:32:40.885Z,91.90
2017-10-11T02:35:07.914Z,92.30
2017-10-11T02:37:34.248Z,92.40
2017-10-11T02:40:00.554Z,92.10
2017-10-11T02:42:27.400Z,92.90
2017-10-11T02:44:53.717Z,90.80
2017-10-11T02:47:20.021Z,91.90
2017-10-11T02:49:47.100Z,92.00
2017-10-11T02:52:13.992Z,92.10
2017-10-11T02:54:40.300Z,92.20
2017-10-11T02:57:06.588Z,91.40
2017-10-11T02:59:33.403Z,92.20
2017-10-11T03:01:59.691Z,91.90
2017-10-11T03:04:27.307Z,91.20
2017-10-11T03:06:53.603Z,91.20
2017-10-11T03:09:19.915Z,92.60
2017-10-11T03:11:47.543Z,92.10
2017-10-11T03:14:13.840Z,91.80
2017-10-11T03:16:40.135Z,91.90
2017-10-11T03:19:07.267Z,91.80
2017-10-11T03:21:34.123Z,92.30
2017-10-11T03:24:01.311Z,92.80
2017-10-11T03:26:28.959Z,92.20
2017-10-11T03:28:55.256Z,92.20
2017-10-11T03:31:22.105Z,91.90
2017-10-11T03:33:48.411Z,91.70
2017-10-11T03:36:14.739Z,91.50
2017-10-11T03:38:56.748Z,91.90
2017-10-11T03:41:23.747Z,91.80
2017-10-11T03:43:50.051Z,91.70
2017-10-11T03:46:16.340Z,91.10
2017-10-11T03:48:42.680Z,91.70
2017-10-11T03:51:10.313Z,94.80
2017-10-11T03:53:37.290Z,93.90
2017-10-11T03:56:03.595Z,94.20
2017-10-11T03:58:30.552Z,94.60
2017-10-11T04:00:56.868Z,93.50
2017-10-11T04:03:23.556Z,94.50
2017-10-11T04:05:49.847Z,94.40
2017-10-11T04:08:16.897Z,94.10
2017-10-11T04:10:43.193Z,94.60
2017-10-11T04:13:10.243Z,94.20
2017-10-11T04:15:37.343Z,94.20
2017-10-11T04:18:03.908Z,94.30
2017-10-11T04:20:30.741Z,94.40
2017-10-11T04:22:57.701Z,94.30
2017-10-11T04:25:24.008Z,93.60
2017-10-11T04:27:51.303Z,95.80
2017-10-11T04:30:17.619Z,94.40
2017-10-11T04:32:44.783Z,95.80
2017-10-11T04:35:11.263Z,99.90
2017-10-11T04:37:38.336Z,96.00
2017-10-11T04:40:04.703Z,95.90
2017-10-11T04:42:31.363Z,95.30
2017-10-11T04:44:57.769Z,95.10
2017-10-11T04:47:24.248Z,96.60
2017-10-11T04:49:50.625Z,95.50
2017-10-11T04:52:17.672Z,95.80
2017-10-11T04:54:45.296Z,94.00
2017-10-11T04:57:11.592Z,94.20
2017-10-11T04:59:38.379Z,96.30
2017-10-11T05:02:05.324Z,95.60
2017-10-11T05:04:32.371Z,93.80
2017-10-11T05:06:58.664Z,94.40
2017-10-11T05:09:25.695Z,93.80
2017-10-11T05:11:52.047Z,93.90
2017-10-11T05:14:19.088Z,94.10
2017-10-11T05:16:46.219Z,94.50
2017-10-11T05:19:12.969Z,94.50
2017-10-11T05:21:39.900Z,94.80
2017-10-11T05:24:06.740Z,93.20
2017-10-11T05:26:34.456Z,94.20
2017-10-11T05:29:01.511Z,94.70
2017-10-11T05:31:29.135Z,94.40
2017-10-11T05:33:55.424Z,94.50
2017-10-11T05:36:21.739Z,94.10
2017-10-11T05:38:48.252Z,96.30
2017-10-11T05:41:15.208Z,95.30
2017-10-11T05:43:42.139Z,96.10
2017-10-11T05:46:08.443Z,94.10
2017-10-11T05:48:34.786Z,95.10
2017-10-11T05:51:01.120Z,95.00
2017-10-11T05:53:27.764Z,94.30
2017-10-11T05:55:54.066Z,95.20
2017-10-11T05:58:20.992Z,93.90
2017-10-11T06:00:47.679Z,95.60
2017-10-11T06:03:14.731Z,95.30
2017-10-11T06:05:41.767Z,93.80
2017-10-11T06:08:08.120Z,93.80
2017-10-11T06:10:35.210Z,93.30
2017-10-11T06:13:01.623Z,93.30
2017-10-11T06:15:27.968Z,93.70
2017-10-11T06:17:55.051Z,92.80
2017-10-11T06:20:21.356Z,93.30
2017-10-11T06:22:48.444Z,93.00
2017-10-11T06:25:15.391Z,93.10
2017-10-11T06:27:41.688Z,93.10
2017-10-11T06:30:07.989Z,92.90
2017-10-11T06:32:34.328Z,92.90
2017-10-11T06:35:00.624Z,93.20
2017-10-11T06:37:27.023Z,93.80
2017-10-11T06:39:54.340Z,92.70
2017-10-11T06:42:21.362Z,92.80
2017-10-11T06:44:47.659Z,92.40
2017-10-11T06:47:15.290Z,92.20
2017-10-11T06:49:42.444Z,92.10
2017-10-11T06:52:08.743Z,91.90
2017-10-11T06:54:35.799Z,91.70
2017-10-11T06:57:02.715Z,91.40
2017-10-11T06:59:29.631Z,91.50
2017-10-11T07:01:55.934Z,90.80
2017-10-11T07:04:22.252Z,89.60
2017-10-11T07:06:49.334Z,89.70
2017-10-11T07:09:15.640Z,89.70
2017-10-11T07:11:42.792Z,88.60
2017-10-11T07:14:10.415Z,88.20
2017-10-11T07:16:37.404Z,88.20
2017-10-11T07:19:04.436Z,87.90
2017-10-11T07:21:31.464Z,87.70
2017-10-11T07:23:58.280Z,87.00
2017-10-11T07:26:25.347Z,86.80
2017-10-11T07:28:51.655Z,86.70
2017-10-11T07:31:18.347Z,86.90
2017-10-11T07:33:44.648Z,85.80
2017-10-11T07:36:10.972Z,85.80
2017-10-11T07:38:38.688Z,85.70
2017-10-11T07:41:05.636Z,85.60
2017-10-11T07:43:31.934Z,84.50
2017-10-11T07:45:58.232Z,84.80
2017-10-11T07:48:25.075Z,84.80
2017-10-11T07:50:51.395Z,83.70
2017-10-11T07:53:18.323Z,82.00
2017-10-11T07:55:45.191Z,83.00
2017-10-11T07:58:11.488Z,83.00
2017-10-11T08:00:37.833Z,82.90
2017-10-11T08:03:04.208Z,79.40
2017-10-11T08:05:30.544Z,82.20
2017-10-11T08:07:56.935Z,80.90
2017-10-11T08:10:23.328Z,80.30
2017-10-11T08:12:50.263Z,81.00
2017-10-11T08:15:17.115Z,79.40
2017-10-11T08:17:43.465Z,79.40
2017-10-11T08:20:10.270Z,78.90
2017-10-11T08:22:37.151Z,78.40
2017-10-11T08:25:03.488Z,79.70
2017-10-11T08:27:30.148Z,77.70
2017-10-11T08:29:56.443Z,76.70
2017-10-11T08:32:22.740Z,78.80
2017-10-11T08:34:49.820Z,76.40
2017-10-11T08:37:16.687Z,76.60
2017-10-11T08:39:42.993Z,78.10
2017-10-11T08:42:09.880Z,78.30
2017-10-11T08:44:36.939Z,76.40
2017-10-11T08:47:03.263Z,77.30
2017-10-11T08:49:29.575Z,76.60
2017-10-11T08:51:56.277Z,76.50
2017-10-11T08:54:23.386Z,75.00
2017-10-11T08:56:49.684Z,75.10
2017-10-11T08:59:17.363Z,75.70
2017-10-11T09:01:43.739Z,75.60
2017-10-11T09:04:10.040Z,75.80
2017-10-11T09:06:36.385Z,75.10
2017-10-11T09:09:03.364Z,75.30
2017-10-11T09:11:30.201Z,75.00
2017-10-11T09:13:57.120Z,74.10
2017-10-11T09:16:24.055Z,74.80
2017-10-11T09:18:51.131Z,74.70
2017-10-11T09:21:17.431Z,74.60
2017-10-11T09:23:44.367Z,74.10
2017-10-11T09:26:10.659Z,74.40
2017-10-11T09:28:37.315Z,73.50
2017-10-11T09:31:04.280Z,73.30
2017-10-11T09:33:30.615Z,74.10
2017-10-11T09:35:56.904Z,72.50
2017-10-11T09:38:24.023Z,72.30
2017-10-11T09:40:50.863Z,73.10
2017-10-11T09:43:17.812Z,72.60
2017-10-11T09:45:44.123Z,73.00
2017-10-11T09:48:11.083Z,72.10
2017-10-11T09:50:37.383Z,72.50
2017-10-11T09:53:04.427Z,70.50
2017-10-11T09:55:31.952Z,70.60
2017-10-11T09:57:58.278Z,70.40
2017-10-11T10:00:24.571Z,67.40
2017-10-11T10:02:52.651Z,69.40
2017-10-11T10:05:18.951Z,69.00
2017-10-11T10:07:45.703Z,68.90
2017-10-11T10:10:12.452Z,69.70
2017-10-11T10:12:39.501Z,68.70
2017-10-11T10:15:06.327Z,68.50
2017-10-11T10:17:32.632Z,67.80
2017-10-11T10:19:58.935Z,67.70
2017-10-11T10:22:26.339Z,63.20
2017-10-11T10:24:53.292Z,63.10
2017-10-11T10:27:19.603Z,60.80
2017-10-11T10:29:45.916Z,66.10
2017-10-11T10:32:14.369Z,64.10
2017-10-11T10:34:40.672Z,64.00
2017-10-11T10:37:06.983Z,65.80
2017-10-11T10:39:34.084Z,65.60
2017-10-11T10:42:00.883Z,65.60
2017-10-11T10:44:27.931Z,65.40
2017-10-11T10:46:54.602Z,65.30
2017-10-11T10:49:20.907Z,65.80
2017-10-11T10:51:48.291Z,62.20
2017-10-11T10:54:14.583Z,62.60
2017-10-11T10:56:40.873Z,65.60
2017-10-11T10:59:07.192Z,65.30
2017-10-11T11:01:33.528Z,65.10
2017-10-11T11:04:00.403Z,62.90
2017-10-11T11:06:27.363Z,63.20
2017-10-11T11:08:53.664Z,61.90
2017-10-11T11:11:20.467Z,62.70
2017-10-11T11:13:47.199Z,63.90
2017-10-11T11:16:13.522Z,63.20
2017-10-11T11:18:40.588Z,62.20
2017-10-11T11:21:06.888Z,63.30
2017-10-11T11:23:33.671Z,63.30
2017-10-11T11:25:59.971Z,64.00
2017-10-11T11:28:26.283Z,62.90
2017-10-11T11:30:53.363Z,63.50
2017-10-11T11:33:19.712Z,63.40
2017-10-11T11:35:46.576Z,60.30
2017-10-11T11:38:13.904Z,59.70
2017-10-11T11:40:40.679Z,60.90
2017-10-11T11:43:07.494Z,62.10
2017-10-11T11:45:33.853Z,60.40
2017-10-11T11:48:00.160Z,59.60
2017-10-11T11:50:26.512Z,58.70
2017-10-11T11:52:52.820Z,55.10
2017-10-11T11:55:19.968Z,57.70
2017-10-11T11:57:47.032Z,57.60
2017-10-11T12:00:14.088Z,57.70
2017-10-11T12:02:41.596Z,57.70
2017-10-11T12:05:08.548Z,57.50
2017-10-11T12:07:34.862Z,58.20
2017-10-11T12:10:01.839Z,57.20
2017-10-11T12:12:28.784Z,56.60
2017-10-11T12:14:55.761Z,57.90
2017-10-11T12:17:22.688Z,57.60
2017-10-11T12:19:49.644Z,57.50
2017-10-11T12:22:17.208Z,55.50
2017-10-11T12:24:44.360Z,56.80
2017-10-11T12:27:10.660Z,56.30
2017-10-11T12:29:36.981Z,55.60
2017-10-11T12:32:04.056Z,55.20
2017-10-11T12:34:31.140Z,54.70
2017-10-11T12:36:57.889Z,55.60
2017-10-11T12:39:24.208Z,55.20
2017-10-11T12:41:51.480Z,55.20
2017-10-11T12:44:17.780Z,53.10
2017-10-11T12:46:44.128Z,54.60
2017-10-11T12:49:10.475Z,55.60
2017-10-11T12:51:36.822Z,55.10
2017-10-11T12:54:03.241Z,55.20
2017-10-11T12:56:29.619Z,53.90
2017-10-11T12:58:56.649Z,54.10
2017-10-11T13:01:23.393Z,54.90
2017-10-11T13:03:49.703Z,54.60
2017-10-11T13:06:16.035Z,56.00
2017-10-11T13:08:43.106Z,55.70
2017-10-11T13:11:10.183Z,55.40
2017-10-11T13:13:36.501Z,53.70
2017-10-11T13:16:02.817Z,54.80
2017-10-11T13:18:29.159Z,55.30
2017-10-11T13:20:55.467Z,54.50
2017-10-11T13:23:23.283Z,54.90
2017-10-11T13:25:49.597Z,55.00
2017-10-11T13:28:16.844Z,55.70
2017-10-11T13:30:43.144Z,54.60
2017-10-11T13:33:10.071Z,54.70
2017-10-11T13:35:36.807Z,56.10
2017-10-11T13:38:03.180Z,55.60
2017-10-11T13:40:30.923Z,55.50
2017-10-11T13:42:57.300Z,55.40
2017-10-11T13:45:24.301Z,56.90
2017-10-11T13:47:50.673Z,56.90
2017-10-11T13:50:16.984Z,54.80
2017-10-11T13:52:43.399Z,55.10
2017-10-11T13:55:10.320Z,55.90
2017-10-11T13:57:37.343Z,55.70
2017-10-11T14:00:04.488Z,56.10
2017-10-11T14:02:31.651Z,56.30
2017-10-11T14:04:57.995Z,56.30
2017-10-11T14:07:39.264Z,56.20
2017-10-11T14:10:07.011Z,55.90
2017-10-11T14:12:33.339Z,56.70
2017-10-11T14:15:00.027Z,56.60
2017-10-11T14:17:26.433Z,56.70
2017-10-11T14:19:52.751Z,57.70
2017-10-11T14:22:19.240Z,58.20
2017-10-11T14:24:46.659Z,59.70
2017-10-11T14:27:14.703Z,59.60
2017-10-11T14:29:41.385Z,58.80
2017-10-11T14:32:09.464Z,57.00
2017-10-11T14:34:35.767Z,56.30
2017-10-11T14:37:02.060Z,56.30
2017-10-11T14:39:28.393Z,56.30
2017-10-11T14:41:55.227Z,57.10
2017-10-11T14:44:22.070Z,58.00
2017-10-11T14:46:48.373Z,59.60
2017-10-11T14:49:14.705Z,61.50
2017-10-11T14:51:41.063Z,62.70
2017-10-11T14:54:07.419Z,63.50
2017-10-11T14:56:34.268Z,63.90
2017-10-11T14:59:00.564Z,65.10
2017-10-11T15:01:26.924Z,65.00
2017-10-11T15:03:53.282Z,64.40
2017-10-11T15:06:19.647Z,64.50
2017-10-11T15:08:47.371Z,64.80
2017-10-11T15:11:13.701Z,64.70
2017-10-11T15:13:40.032Z,65.00
2017-10-11T15:16:07.720Z,65.40
2017-10-11T15:18:34.032Z,67.50
2017-10-11T15:21:00.331Z,68.00
2017-10-11T15:23:28.052Z,66.90
2017-10-11T15:25:54.340Z,66.90
2017-10-11T15:28:21.340Z,69.20
2017-10-11T15:30:47.648Z,70.60
2017-10-11T15:33:13.971Z,68.80
2017-10-11T15:35:40.636Z,68.30
2017-10-11T15:38:06.928Z,72.50
2017-10-11T15:40:34.884Z,70.00
2017-10-11T15:43:02.848Z,70.00
2017-10-11T15:45:29.196Z,70.00
2017-10-11T15:47:55.504Z,69.70
2017-10-11T15:50:21.840Z,69.60
2017-10-11T15:52:48.896Z,70.00
2017-10-11T15:55:15.640Z,70.10
2017-10-11T15:57:42.483Z,69.90
2017-10-11T16:00:10.568Z,69.90
2017-10-11T16:02:37.520Z,70.10
2017-10-11T16:05:03.844Z,70.00
2017-10-11T16:07:30.136Z,70.20
2017-10-11T16:09:57.955Z,74.50
2017-10-11T16:12:24.274Z,74.80
2017-10-11T16:14:50.588Z,74.40
2017-10-11T16:17:17.561Z,72.10
2017-10-11T16:19:43.881Z,72.70
2017-10-11T16:22:10.287Z,72.90
2017-10-11T16:24:38.128Z,73.60
2017-10-11T16:27:04.992Z,73.60
2017-10-11T16:29:32.272Z,73.20
2017-10-11T16:31:59.331Z,76.40
2017-10-11T16:34:26.750Z,75.80
2017-10-11T16:36:53.068Z,75.10
2017-10-11T16:39:19.372Z,76.90
2017-10-11T16:41:46.208Z,75.20
2017-10-11T16:44:13.935Z,75.10
2017-10-11T16:46:41.615Z,76.30
2017-10-11T16:49:08.600Z,76.40
2017-10-11T16:51:36.213Z,76.20
2017-10-11T16:54:02.555Z,76.20
2017-10-11T16:56:28.902Z,76.40
2017-10-11T16:58:55.850Z,77.30
2017-10-11T17:01:22.899Z,77.40
2017-10-11T17:03:50.059Z,77.50
2017-10-11T17:06:17.564Z,83.90
2017-10-11T17:08:45.084Z,80.70
2017-10-11T17:11:12.497Z,81.10
2017-10-11T17:13:39.374Z,83.20
2017-10-11T17:16:06.320Z,80.30
2017-10-11T17:18:34.100Z,85.90
2017-10-11T17:21:00.479Z,80.40
2017-10-11T17:23:28.113Z,80.50
2017-10-11T17:25:54.421Z,80.40
2017-10-11T17:28:20.754Z,79.90
2017-10-11T17:30:47.124Z,79.80
2017-10-11T17:33:13.436Z,80.00
2017-10-11T17:35:39.832Z,84.70
2017-10-11T17:38:06.908Z,81.00
2017-10-11T17:40:33.992Z,81.20
2017-10-11T17:43:00.380Z,80.70
2017-10-11T17:45:27.459Z,80.90
2017-10-11T17:47:54.315Z,80.90
2017-10-11T17:50:22.253Z,81.70
2017-10-11T17:52:49.818Z,82.30
2017-10-11T17:55:16.882Z,81.50
2017-10-11T17:57:44.778Z,81.00
2017-10-11T18:00:11.664Z,81.20
2017-10-11T18:02:38.018Z,83.10
2017-10-11T18:05:05.076Z,79.80
2017-10-11T18:07:32.893Z,82.30
2017-10-11T18:10:00.518Z,82.30
2017-10-11T18:12:28.060Z,82.90
2017-10-11T18:14:54.890Z,82.90
2017-10-11T18:17:21.219Z,82.90
2017-10-11T18:19:47.527Z,84.50
2017-10-11T18:22:14.515Z,84.20
2017-10-11T18:24:41.817Z,84.50
2017-10-11T18:27:09.141Z,82.60
2017-10-11T18:29:36.009Z,82.40
2017-10-11T18:32:03.140Z,83.60
2017-10-11T18:34:30.670Z,83.70
2017-10-11T18:36:57.216Z,83.60
2017-10-11T18:39:25.095Z,84.10
2017-10-11T18:41:52.343Z,83.50
2017-10-11T18:44:18.779Z,83.60
2017-10-11T18:46:46.284Z,88.00
2017-10-11T18:49:12.640Z,84.10
2017-10-11T18:51:39.776Z,84.00
2017-10-11T18:54:06.751Z,84.10
2017-10-11T18:56:34.160Z,85.00
2017-10-11T18:59:01.838Z,84.30
2017-10-11T19:01:28.868Z,84.40
2017-10-11T19:03:55.199Z,84.40
2017-10-11T19:06:22.257Z,86.40
2017-10-11T19:08:48.693Z,86.60
2017-10-11T19:11:15.555Z,85.00
2017-10-11T19:13:42.869Z,86.40
2017-10-11T19:16:10.058Z,85.40
2017-10-11T19:18:37.075Z,85.50
2017-10-11T19:21:04.168Z,84.40
2017-10-11T19:23:31.173Z,84.60
2017-10-11T19:25:58.252Z,86.70
2017-10-11T19:28:24.559Z,87.20
2017-10-11T19:30:51.656Z,87.20
2017-10-11T19:33:18.643Z,87.40
2017-10-11T19:35:45.013Z,87.20
2017-10-11T19:38:12.057Z,87.00
2017-10-11T19:40:39.825Z,85.30
2017-10-11T19:43:07.741Z,88.80
2017-10-11T19:45:34.524Z,88.60
2017-10-11T19:48:01.466Z,87.60
2017-10-11T19:50:27.844Z,87.00
2017-10-11T19:52:54.883Z,86.90
2017-10-11T19:55:22.008Z,86.40
2017-10-11T19:57:48.339Z,86.50
2017-10-11T20:00:21.632Z,87.40
2017-10-11T20:02:48.023Z,87.00
2017-10-11T20:05:14.932Z,90.40
2017-10-11T20:07:42.174Z,89.00
2017-10-11T20:10:08.484Z,91.20
2017-10-11T20:12:35.367Z,88.10
2017-10-11T20:15:01.723Z,86.40
2017-10-11T20:17:28.503Z,87.40
2017-10-11T20:19:54.819Z,87.40
2017-10-11T20:22:22.443Z,87.10
2017-10-11T20:24:51.040Z,88.00
2017-10-11T20:27:18.092Z,87.60
2017-10-11T20:29:44.411Z,87.70
2017-10-11T20:32:10.759Z,87.00
2017-10-11T20:34:37.071Z,86.90
2017-10-11T20:37:03.465Z,87.00
2017-10-11T20:39:30.544Z,87.10
2017-10-11T20:41:57.332Z,87.30
2017-10-11T20:44:23.646Z,86.60
2017-10-11T20:46:49.991Z,87.00
2017-10-11T20:49:16.379Z,86.40
2017-10-11T20:51:43.417Z,86.90
2017-10-11T20:54:09.827Z,86.90
2017-10-11T20:56:36.684Z,86.00
2017-10-11T20:59:03.501Z,86.60
2017-10-11T21:01:29.791Z,86.40
2017-10-11T21:03:56.491Z,86.20
2017-10-11T21:06:23.457Z,87.20
2017-10-11T21:08:49.763Z,86.30
2017-10-11T21:11:16.540Z,86.50
2017-10-11T21:13:43.368Z,86.50
2017-10-11T21:16:09.679Z,86.50
2017-10-11T21:18:35.983Z,86.70
2017-10-11T21:21:02.311Z,86.30
2017-10-11T21:23:29.134Z,88.50
2017-10-11T21:25:55.423Z,87.60
2017-10-11T21:28:22.463Z,88.80
2017-10-11T21:30:48.800Z,89.00
2017-10-11T21:33:15.879Z,87.30
2017-10-11T21:35:42.286Z,87.40
2017-10-11T21:38:09.207Z,87.90
2017-10-11T21:40:36.159Z,88.50
2017-10-11T21:43:02.440Z,87.60
2017-10-11T21:45:29.499Z,87.20
2017-10-11T21:47:56.585Z,88.30
2017-10-11T21:50:23.547Z,88.40
2017-10-11T21:52:50.499Z,87.90
2017-10-11T21:55:17.553Z,87.90
2017-10-11T21:57:44.728Z,87.40
2017-10-11T22:00:11.023Z,88.10
2017-10-11T22:02:37.995Z,87.70
2017-10-11T22:05:04.949Z,87.90
2017-10-11T22:07:31.810Z,88.20
2017-10-11T22:09:59.587Z,87.50
2017-10-11T22:12:27.338Z,87.40
2017-10-11T22:14:53.631Z,87.40
2017-10-11T22:17:20.011Z,88.60
2017-10-11T22:19:46.439Z,89.60
2017-10-11T22:22:12.812Z,89.00
2017-10-11T22:24:39.827Z,89.60
2017-10-11T22:27:06.219Z,89.00
2017-10-11T22:29:33.367Z,88.80
2017-10-11T22:32:00.547Z,88.80
2017-10-11T22:34:26.855Z,88.80
2017-10-11T22:36:54.379Z,89.20
2017-10-11T22:39:20.681Z,89.20
2017-10-11T22:41:47.563Z,90.00
2017-10-11T22:44:13.860Z,89.70
2017-10-11T22:46:40.147Z,89.30
2017-10-11T22:49:07.007Z,90.10
2017-10-11T22:51:33.348Z,90.30
2017-10-11T22:54:00.372Z,89.90
2017-10-11T22:56:26.708Z,91.20
2017-10-11T22:58:53.660Z,89.70
2017-10-11T23:01:19.964Z,89.10
2017-10-11T23:03:46.727Z,89.70
2017-10-11T23:06:13.314Z,89.60
2017-10-11T23:08:39.604Z,89.30
2017-10-11T23:11:06.563Z,90.10
2017-10-11T23:13:33.548Z,88.80
2017-10-11T23:15:59.849Z,88.80
2017-10-11T23:18:26.152Z,88.80
2017-10-11T23:20:52.496Z,89.50
2017-10-11T23:23:19.379Z,90.20
2017-10-11T23:25:46.331Z,88.90
2017-10-11T23:28:13.438Z,89.20
2017-10-11T23:30:39.736Z,92.10
2017-10-11T23:33:06.564Z,91.00
2017-10-11T23:35:33.292Z,91.30
2017-10-11T23:37:59.594Z,90.20
2017-10-11T23:40:28.133Z,89.10
2017-10-11T23:42:54.460Z,89.20
2017-10-11T23:45:20.764Z,89.00
2017-10-11T23:47:47.121Z,89.20
2017-10-11T23:50:13.420Z,89.20
2017-10-11T23:52:40.814Z,90.70
2017-10-11T23:55:07.686Z,90.70
2017-10-11T23:57:34.648Z,89.90
